createdAt,value
2022-09-15T04:58:05.669Z,76.64
2022-09-15T05:00:23.238Z,76.09
2022-09-15T05:02:25.716Z,75.24
2022-09-15T05:04:29.848Z,75.05
2022-09-15T05:06:33.591Z,74.64
2022-09-15T05:08:36.458Z,74.34
2022-09-15T05:10:39.659Z,73.47
2022-09-15T05:12:42.523Z,73.48
2022-09-15T05:14:46.478Z,72.93
2022-09-15T05:16:49.108Z,72.99
2022-09-15T05:18:52.985Z,72.62
2022-09-15T05:20:59.375Z,72.77
2022-09-15T05:23:01.987Z,72.14
2022-09-15T05:25:05.522Z,72.26
2022-09-15T05:27:08.163Z,71.94
2022-09-15T05:29:10.900Z,71.96
2022-09-15T05:31:18.794Z,71.60
2022-09-15T05:33:22.602Z,71.61
2022-09-15T05:35:25.244Z,71.42
2022-09-15T05:37:27.856Z,71.05
2022-09-15T05:39:30.618Z,71.30
2022-09-15T05:41:33.479Z,71.36
2022-09-15T05:43:37.391Z,71.16
2022-09-15T05:45:42.492Z,70.53
2022-09-15T05:47:47.594Z,70.48
2022-09-15T05:49:50.252Z,70.92
2022-09-15T05:51:52.863Z,70.99
2022-09-15T05:53:55.679Z,70.60
2022-09-15T05:55:59.445Z,70.39
2022-09-15T05:58:02.122Z,70.81
2022-09-15T06:00:05.765Z,70.79
2022-09-15T06:02:10.125Z,70.58
2022-09-15T06:04:14.106Z,70.47
2022-09-15T06:06:19.953Z,70.04
2022-09-15T06:08:22.695Z,70.04
2022-09-15T06:10:38.257Z,70.19
2022-09-15T06:12:42.076Z,69.78
2022-09-15T06:14:45.851Z,69.69
2022-09-15T06:16:48.608Z,69.91
2022-09-15T06:18:53.357Z,69.41
2022-09-15T06:20:57.502Z,69.36
2022-09-15T06:23:00.262Z,69.39
2022-09-15T06:25:03.101Z,68.98
2022-09-15T06:27:05.979Z,69.09
2022-09-15T06:29:11.510Z,69.20
2022-09-15T06:31:15.478Z,69.28
2022-09-15T06:33:18.452Z,68.77
2022-09-15T06:35:21.581Z,68.96
2022-09-15T06:37:33.262Z,68.80
2022-09-15T06:39:36.170Z,68.65
2022-09-15T06:42:00.845Z,68.99
2022-09-15T06:44:02.774Z,68.56
2022-09-15T06:46:08.795Z,68.86
2022-09-15T06:48:24.110Z,68.86
2022-09-15T06:50:27.466Z,68.79
2022-09-15T06:52:31.567Z,68.19
2022-09-15T06:54:34.774Z,68.14
2022-09-15T06:56:39.846Z,68.16
2022-09-15T06:58:44.320Z,68.02
2022-09-15T07:00:48.679Z,68.33
2022-09-15T07:02:51.939Z,68.25
2022-09-15T07:04:55.396Z,68.06
2022-09-15T07:06:58.166Z,67.92
2022-09-15T07:09:02.968Z,68.14
2022-09-15T07:11:06.019Z,68.15
2022-09-15T07:13:09.243Z,67.72
2022-09-15T07:15:13.967Z,68.09
2022-09-15T07:17:17.581Z,67.54
2022-09-15T07:19:20.563Z,67.48
2022-09-15T07:21:24.254Z,67.49
2022-09-15T07:23:27.494Z,67.58
2022-09-15T07:25:31.848Z,67.61
2022-09-15T07:27:34.770Z,67.74
2022-09-15T07:29:38.871Z,67.37
2022-09-15T07:31:44.327Z,67.29
2022-09-15T07:33:49.733Z,67.11
2022-09-15T07:35:52.499Z,67.08
2022-09-15T07:37:55.295Z,67.17
2022-09-15T07:39:58.530Z,67.16
2022-09-15T07:42:02.960Z,67.19
2022-09-15T07:44:08.241Z,66.70
2022-09-15T07:46:11.527Z,66.69
2022-09-15T07:48:14.735Z,66.64
2022-09-15T07:50:17.769Z,66.92
2022-09-15T07:52:20.592Z,66.93
2022-09-15T07:54:23.803Z,66.92
2022-09-15T07:56:26.704Z,66.77
2022-09-15T07:58:30.912Z,66.55
2022-09-15T08:00:33.603Z,66.20
2022-09-15T08:02:38.681Z,66.40
2022-09-15T08:04:41.330Z,66.42
2022-09-15T08:06:44.108Z,66.59
2022-09-15T08:08:47.622Z,66.47
2022-09-15T08:10:50.493Z,66.22
2022-09-15T08:12:56.049Z,66.52
2022-09-15T08:15:01.256Z,66.50
2022-09-15T08:17:11.253Z,65.98
2022-09-15T08:19:15.146Z,66.18
2022-09-15T08:21:21.221Z,65.68
2022-09-15T08:23:24.779Z,65.74
2022-09-15T08:25:27.758Z,65.64
2022-09-15T08:27:31.907Z,66.06
2022-09-15T08:29:36.117Z,65.53
2022-09-15T08:31:40.727Z,65.69
2022-09-15T08:33:45.893Z,65.82
2022-09-15T08:35:49.097Z,65.43
2022-09-15T08:37:54.491Z,65.86
2022-09-15T08:40:00.819Z,65.42
2022-09-15T08:42:04.336Z,65.60
2022-09-15T08:44:20.657Z,65.27
2022-09-15T08:46:29.232Z,65.27
2022-09-15T08:48:43.194Z,64.92
2022-09-15T08:50:52.286Z,65.06
2022-09-15T08:53:03.734Z,64.98
2022-09-15T08:55:14.798Z,64.87
2022-09-15T08:57:30.276Z,64.96
2022-09-15T08:59:35.758Z,64.53
2022-09-15T09:01:51.249Z,64.84
2022-09-15T09:04:22.480Z,64.32
2022-09-15T09:06:37.790Z,64.65
2022-09-15T09:09:15.676Z,64.39
2022-09-15T09:11:27.616Z,64.19
2022-09-15T09:13:38.643Z,64.50
2022-09-15T09:18:08.648Z,64.15
2022-09-15T09:20:25.089Z,63.99
2022-09-15T09:24:37.882Z,63.85
2022-09-15T09:26:40.816Z,64.22
2022-09-15T09:28:49.163Z,63.85
2022-09-15T09:30:51.931Z,63.76
2022-09-15T09:33:07.671Z,63.94
2022-09-15T09:35:20.308Z,63.64
2022-09-15T09:37:27.893Z,63.86
2022-09-15T09:39:30.739Z,63.28
2022-09-15T09:41:36.880Z,63.85
2022-09-15T09:43:41.083Z,63.40
2022-09-15T09:45:45.895Z,63.53
2022-09-15T09:47:48.823Z,63.48
2022-09-15T09:49:51.707Z,63.44
2022-09-15T09:51:57.289Z,63.58
2022-09-15T09:54:16.675Z,63.15
2022-09-15T09:56:24.836Z,63.25
2022-09-15T09:58:28.762Z,63.03
2022-09-15T10:00:33.274Z,62.93
2022-09-15T10:02:49.977Z,62.97
2022-09-15T10:04:54.535Z,63.23
2022-09-15T10:06:58.851Z,62.94
2022-09-15T10:09:05.573Z,63.27
2022-09-15T10:11:11.156Z,62.79
2022-09-15T10:13:14.115Z,63.08
2022-09-15T10:15:24.310Z,62.97
2022-09-15T10:17:39.279Z,62.95
2022-09-15T10:19:47.895Z,62.62
2022-09-15T10:21:50.674Z,62.54
2022-09-15T10:23:54.906Z,62.73
2022-09-15T10:26:00.491Z,62.44
2022-09-15T10:28:15.239Z,62.37
2022-09-15T10:30:19.962Z,62.26
2022-09-15T10:32:30.490Z,62.70
2022-09-15T10:34:33.695Z,62.10
2022-09-15T10:36:37.002Z,62.44
2022-09-15T10:38:43.285Z,62.12
2022-09-15T10:40:55.694Z,62.48
2022-09-15T10:43:06.574Z,62.48
2022-09-15T10:45:18.581Z,62.25
2022-09-15T10:47:31.033Z,62.03
2022-09-15T10:49:54.144Z,62.34
2022-09-15T10:52:09.063Z,62.06
2022-09-15T10:54:29.580Z,62.23
2022-09-15T10:56:38.288Z,62.11
2022-09-15T10:58:55.975Z,62.10
2022-09-15T11:01:13.507Z,62.00
2022-09-15T11:03:43.100Z,62.39
2022-09-15T11:06:00.499Z,62.27
2022-09-15T11:08:19.583Z,62.03
2022-09-15T11:10:30.124Z,62.09
2022-09-15T11:12:47.756Z,61.92
2022-09-15T11:15:05.473Z,61.97
2022-09-15T11:17:23.650Z,61.85
2022-09-15T11:19:53.591Z,61.84
2022-09-15T11:21:59.321Z,61.84
2022-09-15T11:24:24.345Z,62.02
2022-09-15T11:26:34.798Z,61.83
2022-09-15T11:28:43.767Z,61.99
2022-09-15T11:30:54.238Z,61.88
2022-09-15T11:33:01.773Z,61.72
2022-09-15T11:35:26.359Z,62.15
2022-09-15T11:37:38.058Z,62.11
2022-09-15T11:39:47.398Z,62.03
2022-09-15T11:41:56.505Z,62.07
2022-09-15T11:44:16.728Z,61.87
2022-09-15T11:46:27.063Z,61.93
2022-09-15T11:48:37.000Z,61.75
2022-09-15T11:50:45.450Z,61.66
2022-09-15T11:52:56.174Z,61.51
2022-09-15T11:55:04.724Z,61.58
2022-09-15T11:57:19.294Z,61.65
2022-09-15T11:59:32.587Z,61.71
2022-09-15T12:01:45.043Z,61.66
2022-09-15T12:03:52.698Z,62.00
2022-09-15T12:05:58.778Z,61.64
2022-09-15T12:08:06.142Z,61.71
2022-09-15T12:10:16.624Z,62.04
2022-09-15T12:12:22.843Z,61.82
2022-09-15T12:14:35.868Z,61.57
2022-09-15T12:16:39.116Z,61.67
2022-09-15T12:18:48.922Z,61.60
2022-09-15T12:21:00.476Z,61.87
2022-09-15T12:23:11.942Z,61.67
2022-09-15T12:25:21.015Z,61.58
2022-09-15T12:27:24.087Z,61.56
2022-09-15T12:29:42.052Z,61.97
2022-09-15T12:31:46.102Z,61.83
2022-09-15T12:33:55.958Z,61.93
2022-09-15T12:36:35.689Z,62.07
2022-09-15T12:38:38.506Z,61.98
2022-09-15T12:40:42.030Z,62.37
2022-09-15T12:42:47.554Z,62.36
2022-09-15T12:44:55.733Z,62.59
2022-09-15T12:47:00.459Z,62.57
2022-09-15T12:49:04.277Z,62.45
2022-09-15T12:51:10.903Z,62.54
2022-09-15T12:53:20.278Z,62.79
2022-09-15T12:55:27.047Z,63.12
2022-09-15T12:57:33.241Z,62.61
2022-09-15T12:59:36.253Z,62.78
2022-09-15T13:01:49.888Z,63.00
2022-09-15T13:04:29.047Z,63.07
2022-09-15T13:06:34.900Z,63.37
2022-09-15T13:08:47.425Z,63.35
2022-09-15T13:11:03.584Z,63.48
2022-09-15T13:13:18.587Z,63.36
2022-09-15T13:15:24.549Z,63.80
2022-09-15T13:17:30.302Z,63.64
2022-09-15T13:19:42.261Z,63.67
2022-09-15T13:21:50.252Z,63.48
2022-09-15T13:23:54.335Z,63.89
2022-09-15T13:26:01.680Z,63.71
2022-09-15T13:28:09.613Z,64.01
2022-09-15T13:30:31.548Z,63.75
2022-09-15T13:32:46.964Z,64.05
2022-09-15T13:35:20.681Z,64.00
2022-09-15T13:38:21.777Z,64.07
2022-09-15T13:40:49.998Z,64.10
2022-09-15T13:43:05.105Z,63.74
2022-09-15T13:45:29.399Z,63.99
2022-09-15T13:47:48.946Z,63.84
2022-09-15T13:49:56.988Z,63.97
2022-09-15T13:52:04.453Z,63.84
2022-09-15T13:54:17.163Z,63.73
2022-09-15T13:56:25.042Z,63.62
2022-09-15T14:01:00.910Z,63.41
2022-09-15T14:03:11.727Z,63.66
2022-09-15T14:05:15.970Z,63.41
2022-09-15T14:07:24.588Z,63.71
2022-09-15T14:09:31.020Z,63.71
2022-09-15T14:11:36.813Z,63.66
2022-09-15T14:13:44.531Z,63.13
2022-09-15T14:15:57.868Z,63.16
2022-09-15T14:18:00.713Z,63.13
2022-09-15T14:20:17.932Z,62.95
2022-09-15T14:22:27.286Z,63.22
2022-09-15T14:24:32.225Z,63.26
2022-09-15T14:26:39.293Z,62.90
2022-09-15T14:28:43.200Z,63.17
2022-09-15T14:30:48.919Z,63.21
2022-09-15T14:32:55.414Z,62.83
2022-09-15T14:35:00.811Z,63.00
2022-09-15T14:37:09.058Z,63.15
2022-09-15T14:39:25.713Z,62.87
2022-09-15T14:41:32.942Z,62.85
2022-09-15T14:43:39.335Z,62.83
2022-09-15T14:45:56.014Z,63.22
2022-09-15T14:48:07.236Z,62.93
2022-09-15T14:50:14.671Z,62.62
2022-09-15T14:52:32.972Z,63.17
2022-09-15T14:54:38.910Z,63.24
2022-09-15T14:56:44.232Z,62.94
2022-09-15T14:58:52.079Z,63.35
2022-09-15T15:01:01.542Z,63.12
2022-09-15T15:03:17.532Z,63.21
2022-09-15T15:05:25.830Z,63.35
2022-09-15T15:07:33.082Z,63.65
2022-09-15T15:09:41.346Z,63.36
2022-09-15T15:11:44.459Z,63.89
2022-09-15T15:13:51.208Z,63.68
2022-09-15T15:15:55.495Z,63.81
2022-09-15T15:17:58.762Z,63.98
2022-09-15T15:20:13.707Z,64.20
2022-09-15T15:22:21.093Z,64.51
2022-09-15T15:24:25.351Z,64.45
2022-09-15T15:26:35.922Z,64.38
2022-09-15T15:28:42.107Z,64.24
2022-09-15T15:30:47.415Z,64.39
2022-09-15T15:32:50.262Z,64.73
2022-09-15T15:34:55.643Z,64.82
2022-09-15T15:37:03.647Z,64.88
2022-09-15T15:39:08.661Z,64.82
2022-09-15T15:41:21.575Z,64.93
2022-09-15T15:43:27.708Z,64.83
2022-09-15T15:45:31.704Z,65.27
2022-09-15T15:47:37.608Z,65.14
2022-09-15T15:50:02.337Z,65.47
2022-09-15T15:52:03.479Z,65.54
2022-09-15T15:54:06.607Z,65.49
2022-09-15T15:56:09.563Z,65.48
2022-09-15T15:58:15.258Z,65.75
2022-09-15T16:00:22.744Z,65.80
2022-09-15T16:02:27.300Z,66.02
2022-09-15T16:04:30.717Z,65.99
2022-09-15T16:06:34.534Z,65.89
2022-09-15T16:10:50.337Z,66.35
2022-09-15T16:12:53.323Z,66.64
2022-09-15T16:14:57.490Z,66.12
2022-09-15T16:17:00.491Z,66.64
2022-09-15T16:19:03.190Z,67.07
2022-09-15T16:21:10.118Z,66.76
2022-09-15T16:23:20.345Z,67.12
2022-09-15T16:25:35.426Z,67.00
2022-09-15T16:27:38.776Z,67.09
2022-09-15T16:29:42.176Z,66.86
2022-09-15T16:31:46.425Z,67.20
2022-09-15T16:33:49.161Z,67.25
2022-09-15T16:35:55.299Z,67.63
2022-09-15T16:37:58.014Z,67.18
2022-09-15T16:40:00.711Z,67.58
2022-09-15T16:42:03.367Z,67.22
2022-09-15T16:44:17.304Z,67.66
2022-09-15T16:46:20.417Z,67.41
2022-09-15T16:48:25.280Z,67.37
2022-09-15T16:50:28.898Z,67.36
2022-09-15T16:52:31.523Z,67.76
2022-09-15T16:54:34.455Z,67.42
2022-09-15T16:56:37.352Z,67.69
2022-09-15T16:58:40.802Z,67.65
2022-09-15T17:00:47.894Z,67.73
2022-09-15T17:02:50.727Z,67.52
2022-09-15T17:04:56.291Z,67.78
2022-09-15T17:06:59.055Z,68.12
2022-09-15T17:09:01.839Z,68.01
2022-09-15T17:11:06.081Z,68.06
2022-09-15T17:13:09.217Z,68.15
2022-09-15T17:15:20.362Z,68.36
2022-09-15T17:17:26.291Z,68.13
2022-09-15T17:19:29.498Z,68.16
2022-09-15T17:21:33.901Z,68.18
2022-09-15T17:23:38.910Z,68.20
2022-09-15T17:25:48.909Z,68.49
2022-09-15T17:27:51.903Z,68.57
2022-09-15T17:29:54.528Z,68.67
2022-09-15T17:31:57.370Z,68.53
2022-09-15T17:34:02.174Z,68.43
2022-09-15T17:36:05.675Z,68.32
2022-09-15T17:38:10.315Z,68.71
2022-09-15T17:40:14.315Z,68.62
2022-09-15T17:42:16.981Z,68.24
2022-09-15T17:44:19.716Z,68.91
2022-09-15T17:46:27.315Z,68.38
2022-09-15T17:48:29.990Z,68.55
2022-09-15T17:50:35.772Z,68.45
2022-09-15T17:52:38.636Z,68.90
2022-09-15T17:54:42.578Z,69.00
2022-09-15T17:56:45.420Z,68.66
2022-09-15T17:58:48.131Z,68.55
2022-09-15T18:00:51.294Z,69.00
2022-09-15T18:02:56.454Z,68.90
2022-09-15T18:04:59.650Z,68.69
2022-09-15T18:07:02.304Z,68.68
2022-09-15T18:09:05.276Z,68.92
2022-09-15T18:11:14.211Z,68.82
2022-09-15T18:13:22.307Z,68.83
2022-09-15T18:15:26.828Z,69.08
2022-09-15T18:17:29.563Z,69.14
2022-09-15T18:19:32.269Z,69.05
2022-09-15T18:21:35.050Z,68.83
2022-09-15T18:23:39.063Z,68.99
2022-09-15T18:25:42.026Z,68.67
2022-09-15T18:27:46.676Z,68.58
2022-09-15T18:29:49.272Z,68.67
2022-09-15T18:31:52.898Z,68.59
2022-09-15T18:33:55.605Z,68.77
2022-09-15T18:35:59.318Z,68.74
2022-09-15T18:38:01.934Z,68.71
2022-09-15T18:40:07.463Z,68.75
2022-09-15T18:42:11.120Z,68.72
2022-09-15T18:44:15.284Z,68.46
2022-09-15T18:46:18.613Z,68.71
2022-09-15T18:48:21.504Z,68.40
2022-09-15T18:50:25.519Z,68.11
2022-09-15T18:52:28.896Z,68.26
2022-09-15T18:54:34.779Z,68.16
2022-09-15T18:56:37.610Z,68.04
2022-09-15T18:58:40.533Z,68.25
2022-09-15T19:00:46.344Z,68.24
2022-09-15T19:02:49.598Z,68.01
2022-09-15T19:04:52.380Z,67.96
2022-09-15T19:06:55.042Z,68.05
2022-09-15T19:08:58.276Z,67.59
2022-09-15T19:11:02.346Z,67.73
2022-09-15T19:13:05.414Z,68.06
2022-09-15T19:15:11.414Z,67.43
2022-09-15T19:17:16.140Z,67.68
2022-09-15T19:19:25.336Z,67.91
2022-09-15T19:21:28.201Z,67.51
2022-09-15T19:23:30.883Z,67.67
2022-09-15T19:25:33.666Z,67.65
2022-09-15T19:27:37.106Z,67.52
2022-09-15T19:29:42.160Z,67.62
2022-09-15T19:31:44.860Z,67.72
2022-09-15T19:33:49.148Z,67.16
2022-09-15T19:36:05.062Z,67.63
2022-09-15T19:38:15.806Z,67.56
2022-09-15T19:40:18.837Z,67.53
2022-09-15T19:42:21.638Z,67.81
2022-09-15T19:44:27.048Z,67.79
2022-09-15T19:46:30.988Z,67.20
2022-09-15T19:48:39.879Z,67.49
2022-09-15T19:50:46.324Z,67.31
2022-09-15T19:52:49.176Z,67.26
2022-09-15T19:54:55.319Z,66.88
2022-09-15T19:56:58.700Z,66.93
2022-09-15T19:59:01.928Z,66.85
2022-09-15T20:01:04.672Z,66.85
2022-09-15T20:03:07.636Z,67.39
2022-09-15T20:05:10.879Z,67.20
2022-09-15T20:07:16.319Z,67.14
2022-09-15T20:09:18.966Z,67.35
2022-09-15T20:11:21.936Z,67.37
2022-09-15T20:13:26.151Z,67.21
2022-09-15T20:15:29.779Z,67.07
2022-09-15T20:17:32.729Z,66.94
2022-09-15T20:19:37.887Z,66.86
2022-09-15T20:21:56.839Z,67.38
2022-09-15T20:24:01.518Z,67.05
2022-09-15T20:26:06.405Z,67.25
2022-09-15T20:28:09.277Z,67.10
2022-09-15T20:30:12.365Z,67.52
2022-09-15T20:32:15.065Z,67.12
2022-09-15T20:34:18.691Z,67.35
2022-09-15T20:36:24.199Z,67.31
2022-09-15T20:38:26.856Z,67.05
2022-09-15T20:40:31.175Z,67.39
2022-09-15T20:42:34.152Z,67.27
2022-09-15T20:44:37.201Z,67.23
2022-09-15T20:46:40.067Z,67.35
2022-09-15T20:48:43.428Z,67.31
2022-09-15T20:50:46.366Z,67.39
2022-09-15T20:52:49.069Z,67.33
2022-09-15T20:54:51.867Z,67.24
2022-09-15T20:56:55.956Z,67.12
2022-09-15T20:59:00.455Z,67.05
2022-09-15T21:01:05.500Z,67.01
2022-09-15T21:03:08.466Z,67.32
2022-09-15T21:05:11.115Z,67.09
2022-09-15T21:07:14.042Z,67.01
2022-09-15T21:09:16.978Z,67.16
2022-09-15T21:11:21.443Z,67.36
2022-09-15T21:13:29.060Z,67.37
2022-09-15T21:15:31.674Z,67.30
2022-09-15T21:17:34.394Z,66.91
2022-09-15T21:19:37.858Z,66.90
2022-09-15T21:21:40.455Z,67.03
2022-09-15T21:23:44.929Z,67.25
2022-09-15T21:25:47.682Z,66.92
2022-09-15T21:27:50.613Z,66.87
2022-09-15T21:29:54.914Z,67.15
2022-09-15T21:31:57.767Z,67.52
2022-09-15T21:34:00.818Z,67.47
2022-09-15T21:36:06.190Z,67.44
2022-09-15T21:38:10.152Z,67.19
